createdAt,value
2018-04-24T00:04:42.856Z,72.30
2018-04-24T00:09:45.917Z,72.10
2018-04-24T00:14:48.490Z,72.00
2018-04-24T00:19:51.850Z,71.40
2018-04-24T00:24:54.437Z,71.30
2018-04-24T00:29:57.021Z,71.20
2018-04-24T00:34:59.623Z,71.00
2018-04-24T00:40:02.209Z,70.90
2018-04-24T00:45:04.847Z,71.70
2018-04-24T00:50:07.517Z,72.50
2018-04-24T00:55:10.093Z,73.20
2018-04-24T01:00:13.441Z,73.30
2018-04-24T01:05:16.411Z,73.30
2018-04-24T01:10:20.140Z,74.10
2018-04-24T01:15:23.481Z,75.20
2018-04-24T01:20:26.041Z,74.50
2018-04-24T01:25:29.380Z,73.30
2018-04-24T01:30:31.985Z,73.30
2018-04-24T01:35:34.557Z,73.80
2018-04-24T01:40:37.889Z,73.40
2018-04-24T01:45:41.230Z,72.70
2018-04-24T01:50:43.801Z,72.60
2018-04-24T01:55:47.932Z,73.00
2018-04-24T02:00:51.255Z,73.00
2018-04-24T02:05:54.597Z,74.00
2018-04-24T02:10:57.213Z,74.00
2018-04-24T02:15:59.816Z,74.30
2018-04-24T02:21:02.372Z,73.90
2018-04-24T02:26:04.953Z,74.10
2018-04-24T02:31:07.560Z,73.30
2018-04-24T02:36:10.913Z,73.80
2018-04-24T02:41:13.495Z,73.80
2018-04-24T02:46:16.069Z,73.70
2018-04-24T02:51:19.423Z,71.90
2018-04-24T02:56:22.000Z,71.80
2018-04-24T03:01:24.579Z,72.40
2018-04-24T03:06:27.900Z,73.40
2018-04-24T03:11:30.475Z,73.40
2018-04-24T03:16:33.810Z,74.50
2018-04-24T03:21:37.152Z,74.50
2018-04-24T03:26:39.746Z,74.40
2018-04-24T03:31:42.332Z,75.40
2018-04-24T03:36:44.948Z,75.60
2018-04-24T03:41:47.532Z,75.50
2018-04-24T03:46:50.707Z,75.30
2018-04-24T03:51:53.274Z,75.20
2018-04-24T03:56:55.833Z,75.50
2018-04-24T04:01:59.044Z,75.60
2018-04-24T04:07:01.600Z,75.60
2018-04-24T04:12:04.205Z,75.00
2018-04-24T04:17:19.735Z,74.90
2018-04-24T04:22:35.069Z,75.70
2018-04-24T04:27:39.081Z,75.70
2018-04-24T04:32:41.788Z,76.10
2018-04-24T04:37:44.356Z,76.10
2018-04-24T04:42:48.343Z,75.70
2018-04-24T04:47:51.513Z,75.60
2018-04-24T04:52:55.046Z,76.30
2018-04-24T04:57:57.626Z,76.30
2018-04-24T05:03:01.845Z,76.20
2018-04-24T05:08:05.189Z,76.40
2018-04-24T05:13:10.296Z,76.30
2018-04-24T05:18:12.866Z,76.60
2018-04-24T05:23:16.244Z,76.50
2018-04-24T05:28:20.349Z,74.60
2018-04-24T05:33:22.936Z,74.60
2018-04-24T05:38:25.527Z,74.20
2018-04-24T05:43:29.999Z,75.00
2018-04-24T05:48:33.332Z,74.10
2018-04-24T05:53:37.245Z,74.20
2018-04-24T05:58:45.713Z,74.10
2018-04-24T06:03:48.720Z,73.70
2018-04-24T06:08:51.637Z,73.60
2018-04-24T06:14:09.058Z,73.60
2018-04-24T06:19:12.387Z,72.90
2018-04-24T06:24:17.658Z,73.00
2018-04-24T06:29:20.233Z,71.70
2018-04-24T06:34:24.154Z,75.00
2018-04-24T06:39:30.932Z,75.20
2018-04-24T06:44:33.533Z,75.10
2018-04-24T06:49:37.982Z,73.20
2018-04-24T06:54:44.153Z,71.20
2018-04-24T06:59:46.708Z,70.70
2018-04-24T07:04:49.289Z,70.50
2018-04-24T07:09:52.492Z,69.90
2018-04-24T07:14:56.660Z,67.80
2018-04-24T07:19:59.251Z,67.60
2018-04-24T07:25:01.830Z,68.80
2018-04-24T07:30:04.648Z,69.00
2018-04-24T07:35:07.236Z,68.60
2018-04-24T07:40:10.580Z,67.50
2018-04-24T07:45:14.829Z,66.20
2018-04-24T07:50:17.414Z,65.40
2018-04-24T07:55:22.564Z,65.10
2018-04-24T08:00:25.145Z,64.60
2018-04-24T08:05:27.737Z,64.20
2018-04-24T08:10:30.793Z,64.40
2018-04-24T08:15:34.918Z,63.70
2018-04-24T08:20:38.012Z,63.20
2018-04-24T08:25:43.293Z,62.50
2018-04-24T08:30:45.881Z,61.50
2018-04-24T08:35:49.414Z,61.90
2018-04-24T08:40:52.435Z,62.20
2018-04-24T08:45:55.024Z,62.00
2018-04-24T08:50:58.761Z,63.60
2018-04-24T08:56:02.019Z,62.50
2018-04-24T09:01:05.700Z,61.60
2018-04-24T09:06:08.273Z,62.10
2018-04-24T09:11:11.513Z,63.50
2018-04-24T09:16:15.045Z,58.80
2018-04-24T09:21:18.676Z,58.80
2018-04-24T09:26:22.453Z,57.20
2018-04-24T09:36:56.697Z,57.50
2018-04-24T09:41:59.260Z,57.00
2018-04-24T09:47:01.823Z,55.80
2018-04-24T09:52:04.712Z,54.70
2018-04-24T09:57:07.871Z,55.40
2018-04-24T10:02:10.742Z,54.10
2018-04-24T10:07:13.557Z,54.60
2018-04-24T10:12:16.141Z,54.30
2018-04-24T10:17:19.405Z,53.70
2018-04-24T10:22:22.767Z,51.80
2018-04-24T10:27:25.367Z,51.60
2018-04-24T10:32:28.833Z,50.60
2018-04-24T10:37:31.480Z,51.60
2018-04-24T10:42:37.268Z,47.20
2018-04-24T10:47:39.866Z,47.10
2018-04-24T10:52:46.785Z,47.00
2018-04-24T10:57:49.854Z,47.20
2018-04-24T11:02:52.441Z,46.60
2018-04-24T11:07:56.785Z,43.90
2018-04-24T11:12:59.340Z,44.20
2018-04-24T11:18:03.083Z,43.30
2018-04-24T11:23:06.899Z,40.90
2018-04-24T11:28:10.241Z,40.90
2018-04-24T11:33:12.812Z,42.50
2018-04-24T11:38:15.661Z,42.70
2018-04-24T11:43:18.868Z,42.00
2018-04-24T11:48:21.452Z,42.50
2018-04-24T11:53:24.781Z,41.50
2018-04-24T11:58:27.341Z,42.10
2018-04-24T12:03:29.975Z,38.50
2018-04-24T12:08:32.553Z,38.70
2018-04-24T12:13:36.500Z,38.70
2018-04-24T12:18:39.555Z,38.60
2018-04-24T12:23:42.147Z,37.60
2018-04-24T12:28:45.148Z,37.40
2018-04-24T12:33:47.720Z,37.70
2018-04-24T12:38:50.298Z,36.40
2018-04-24T12:43:59.670Z,36.20
2018-04-24T12:49:04.400Z,36.60
2018-04-24T12:54:07.317Z,36.80
2018-04-24T12:59:10.978Z,36.30
2018-04-24T13:04:14.180Z,35.40
2018-04-24T13:09:17.748Z,35.10
2018-04-24T13:14:21.124Z,34.20
2018-04-24T13:19:23.710Z,34.10
2018-04-24T13:24:26.277Z,34.60
2018-04-24T13:34:39.585Z,32.70
2018-04-24T13:39:42.149Z,32.60
2018-04-24T13:44:47.474Z,31.70
2018-04-24T13:49:50.730Z,31.70
2018-04-24T13:54:54.263Z,29.50
2018-04-24T13:59:57.591Z,30.00
2018-04-24T14:05:00.400Z,29.90
2018-04-24T14:10:02.983Z,28.90
2018-04-24T14:15:06.005Z,29.60
2018-04-24T14:20:08.929Z,30.00
2018-04-24T14:25:12.005Z,29.60
2018-04-24T14:30:16.112Z,28.40
2018-04-24T14:35:18.721Z,28.40
2018-04-24T14:40:23.133Z,29.30
2018-04-24T14:45:26.590Z,29.20
2018-04-24T14:50:30.486Z,28.20
2018-04-24T14:55:33.053Z,28.10
2018-04-24T15:00:38.857Z,28.60
2018-04-24T15:05:41.437Z,28.70
2018-04-24T15:10:44.108Z,29.10
2018-04-24T15:15:47.148Z,29.40
2018-04-24T15:20:49.749Z,29.50
2018-04-24T15:25:52.752Z,30.60
2018-04-24T15:30:55.539Z,28.40
2018-04-24T15:35:58.466Z,28.20
2018-04-24T15:41:01.037Z,28.00
2018-04-24T15:46:04.265Z,28.20
2018-04-24T15:51:07.500Z,28.10
2018-04-24T15:56:11.237Z,28.20
2018-04-24T16:01:14.493Z,28.20
2018-04-24T16:06:17.662Z,29.20
2018-04-24T16:11:20.972Z,29.50
2018-04-24T16:16:25.054Z,28.50
2018-04-24T16:21:34.314Z,28.80
2018-04-24T16:26:36.869Z,28.80
2018-04-24T16:31:40.108Z,28.70
2018-04-24T16:36:42.684Z,29.80
2018-04-24T16:41:46.032Z,27.10
2018-04-24T16:46:49.070Z,27.10
2018-04-24T16:51:53.537Z,28.80
2018-04-24T16:56:56.134Z,29.00
2018-04-24T17:01:59.019Z,29.00
2018-04-24T17:07:02.294Z,28.00
2018-04-24T17:12:05.150Z,29.20
2018-04-24T17:17:07.723Z,29.00
2018-04-24T17:22:11.881Z,28.80
2018-04-24T17:27:17.734Z,28.50
2018-04-24T17:32:20.937Z,28.40
2018-04-24T17:37:23.516Z,28.80
2018-04-24T17:42:26.103Z,29.40
2018-04-24T17:47:29.368Z,29.20
2018-04-24T17:52:33.072Z,29.50
2018-04-24T17:57:36.735Z,30.10
2018-04-24T18:02:39.321Z,31.10
2018-04-24T18:07:42.419Z,32.30
2018-04-24T18:12:45.679Z,34.30
2018-04-24T18:17:49.021Z,36.10
2018-04-24T18:22:51.616Z,36.10
2018-04-24T18:27:54.229Z,37.10
2018-04-24T18:32:56.808Z,38.00
2018-04-24T18:37:59.447Z,38.30
2018-04-24T18:43:08.657Z,39.10
2018-04-24T18:48:11.812Z,39.70
2018-04-24T18:53:14.691Z,40.10
2018-04-24T18:58:17.915Z,40.80
2018-04-24T19:03:20.503Z,41.50
2018-04-24T19:08:24.498Z,42.00
2018-04-24T19:13:28.110Z,43.20
2018-04-24T19:18:36.993Z,44.20
2018-04-24T19:23:40.480Z,44.00
2018-04-24T19:28:43.521Z,44.20
2018-04-24T19:33:46.102Z,44.20
2018-04-24T20:25:10.682Z,44.80
2018-04-24T20:30:14.081Z,51.60
2018-04-24T20:35:17.415Z,51.00
2018-04-24T20:40:19.987Z,51.00
2018-04-24T20:45:23.324Z,51.30
2018-04-24T20:50:25.900Z,51.30
2018-04-24T20:55:30.235Z,51.90
2018-04-24T21:00:36.085Z,52.20
2018-04-24T21:05:39.531Z,52.20
2018-04-24T21:10:46.385Z,52.50
2018-04-24T21:15:49.030Z,52.50
2018-04-24T21:20:52.813Z,52.70
2018-04-24T21:25:55.381Z,52.60
2018-04-24T21:30:57.966Z,52.70
2018-04-24T21:36:01.941Z,53.20
2018-04-24T21:41:04.576Z,53.30
2018-04-24T21:46:08.940Z,53.10
2018-04-24T21:51:13.472Z,53.10
2018-04-24T21:56:16.701Z,53.10
2018-04-24T22:01:19.854Z,52.60
2018-04-24T22:06:22.440Z,53.30
2018-04-24T22:11:25.649Z,53.70
2018-04-24T22:16:28.221Z,53.80
2018-04-24T22:21:30.797Z,54.20
2018-04-24T22:31:43.877Z,56.10
2018-04-24T22:36:47.770Z,55.60
2018-04-24T22:41:50.351Z,55.50
2018-04-24T22:46:53.301Z,55.60
2018-04-24T22:51:56.638Z,56.00
2018-04-24T22:56:59.774Z,56.00
2018-04-24T23:02:02.702Z,56.40
2018-04-24T23:07:05.299Z,56.80
2018-04-24T23:12:21.439Z,56.90
2018-04-24T23:17:37.126Z,57.20
2018-04-24T23:22:41.433Z,57.60
2018-04-24T23:27:44.451Z,57.90
2018-04-24T23:32:47.336Z,58.00
2018-04-24T23:37:50.730Z,58.20
2018-04-24T23:42:54.890Z,59.20
2018-04-24T23:47:57.747Z,59.20
2018-04-24T23:53:03.026Z,59.40
2018-04-24T23:58:06.656Z,60.20
